Time;durP1;ratioP1;P1;durP2;ratioP2;P2;SDS_P1;SDS_P2;PMS_P1;PMS_P2;Temp;Humidity;BMP_temperature;BMP_pressure;BME280_temperature;BME280_humidity;BME280_pressure;Samples;Min_cycle;Max_cycle;Signal;HPM_P1;HPM_P2
2023/10/15 08:37:00;;;;;;;1.40;0.47;;;14.60;99.90;;;;;;3837564;23;20282;-71
2023/10/15 08:39:27;;;;;;;2.90;0.80;;;14.80;99.90;;;;;;4898095;29;20249;-71
2023/10/15 08:42:14;;;;;;;1.50;0.60;;;14.70;99.90;;;;;;4900101;29;20673;-71
2023/10/15 08:44:41;;;;;;;2.00;0.60;;;14.60;99.90;;;;;;4881974;29;20622;-72
2023/10/15 08:47:14;;;;;;;2.17;0.83;;;14.50;99.90;;;;;;4888356;29;20238;-73
2023/10/15 08:49:47;;;;;;;2.27;0.50;;;14.40;99.90;;;;;;4879702;29;20242;-74
2023/10/15 08:52:16;;;;;;;2.20;0.67;;;14.70;99.90;;;;;;4879902;29;20233;-72
2023/10/15 08:54:44;;;;;;;1.77;0.53;;;14.70;99.90;;;;;;4895572;29;20313;-72
2023/10/15 08:57:12;;;;;;;1.83;0.50;;;14.60;99.90;;;;;;4893968;29;20203;-71
2023/10/15 08:59:39;;;;;;;1.87;1.13;;;14.20;99.90;;;;;;4879572;29;20328;-73
2023/10/15 09:02:08;;;;;;;2.20;0.30;;;13.90;99.90;;;;;;4879899;29;20263;-73
2023/10/15 09:04:35;;;;;;;2.40;0.67;;;13.60;99.90;;;;;;4885752;29;20735;-72
2023/10/15 09:07:03;;;;;;;2.10;0.47;;;13.50;99.90;;;;;;4895982;29;20265;-72
2023/10/15 09:09:33;;;;;;;1.20;0.40;;;13.60;99.90;;;;;;4879089;29;20239;-72
2023/10/15 09:12:00;;;;;;;2.97;0.50;;;13.90;99.90;;;;;;4879550;29;20701;-72
2023/10/15 09:14:40;;;;;;;1.43;0.50;;;13.90;99.90;;;;;;4884445;29;20254;-73
2023/10/15 09:17:09;;;;;;;1.97;0.50;;;13.90;99.90;;;;;;4895629;29;20630;-72
2023/10/15 09:19:37;;;;;;;2.90;0.60;;;13.90;99.90;;;;;;4879307;29;20215;-74
2023/10/15 09:22:06;;;;;;;1.40;0.40;;;13.90;99.90;;;;;;4879537;29;20265;-74
2023/10/15 09:24:36;;;;;;;2.10;0.40;;;13.90;99.90;;;;;;4878721;29;20643;-73
2023/10/15 09:27:05;;;;;;;1.93;0.53;;;13.90;99.90;;;;;;4879540;29;20303;-74
2023/10/15 09:29:32;;;;;;;4.23;0.60;;;14.00;99.90;;;;;;4879356;29;20237;-74
2023/10/15 09:32:02;;;;;;;5.37;0.60;;;13.80;99.90;;;;;;4879274;29;20246;-74
2023/10/15 09:34:29;;;;;;;1.57;0.40;;;13.50;99.90;;;;;;4879113;29;20318;-73
2023/10/15 09:36:58;;;;;;;2.87;0.60;;;13.30;99.90;;;;;;4879052;29;20250;-73
2023/10/15 09:39:26;;;;;;;2.27;0.57;;;13.30;99.90;;;;;;4879233;29;20214;-73
2023/10/15 09:41:56;;;;;;;4.57;0.80;;;13.20;99.90;;;;;;4879404;29;20234;-72
2023/10/15 09:44:24;;;;;;;5.50;1.07;;;13.30;99.90;;;;;;4878786;29;20255;-73
2023/10/15 09:46:51;;;;;;;3.53;0.57;;;13.30;99.90;;;;;;4879157;29;20219;-74
2023/10/15 09:49:19;;;;;;;2.40;0.80;;;13.40;99.90;;;;;;4879048;29;20354;-73
2023/10/15 09:51:48;;;;;;;2.97;0.70;;;13.50;99.90;;;;;;4878987;29;20298;-73
2023/10/15 09:54:19;;;;;;;1.47;0.50;;;13.70;99.90;;;;;;4879287;29;20231;-73
2023/10/15 09:56:47;;;;;;;3.10;0.50;;;13.70;99.90;;;;;;4879200;29;20239;-73
2023/10/15 09:59:15;;;;;;;2.17;0.70;;;13.60;99.90;;;;;;4879029;29;20298;-74
2023/10/15 10:01:48;;;;;;;1.97;0.70;;;13.50;99.90;;;;;;4878757;29;20207;-74
2023/10/15 10:04:43;;;;;;;6.03;1.30;;;13.50;99.90;;;;;;4878939;29;20235;-73
2023/10/15 10:07:32;;;;;;;1.80;0.60;;;13.30;99.90;;;;;;4878673;29;20306;-73
2023/10/15 10:10:34;;;;;;;2.50;0.40;;;12.90;99.90;;;;;;4878872;29;20617;-73
2023/10/15 10:13:19;;;;;;;1.20;0.40;;;12.50;99.90;;;;;;4878666;29;20210;-74
2023/10/15 10:15:54;;;;;;;3.30;0.67;;;12.20;99.90;;;;;;4878997;29;20235;-73
2023/10/15 10:18:22;;;;;;;1.17;0.60;;;12.10;99.90;;;;;;4878575;29;20214;-73
2023/10/15 10:20:49;;;;;;;3.07;0.40;;;11.90;99.90;;;;;;4878755;29;20221;-74
2023/10/15 10:23:17;;;;;;;2.27;0.53;;;11.70;99.90;;;;;;4878493;29;20254;-73
2023/10/15 10:25:45;;;;;;;1.57;0.57;;;11.70;99.90;;;;;;4878879;29;20219;-73
2023/10/15 10:28:14;;;;;;;4.07;0.60;;;11.90;99.90;;;;;;4879147;29;20294;-73
2023/10/15 10:30:54;;;;;;;1.13;0.60;;;11.80;99.90;;;;;;4878784;29;20249;-73
2023/10/15 10:33:42;;;;;;;1.37;0.70;;;11.80;99.90;;;;;;4879043;29;20702;-73
2023/10/15 10:36:12;;;;;;;2.77;0.83;;;11.90;99.90;;;;;;4879626;29;20288;-73
2023/10/15 10:38:40;;;;;;;1.80;0.80;;;12.10;99.90;;;;;;4882314;29;20276;-73
2023/10/15 10:41:13;;;;;;;2.60;0.60;;;12.30;99.90;;;;;;4882078;29;20216;-73
2023/10/15 10:43:42;;;;;;;1.67;0.50;;;12.50;99.90;;;;;;4882318;29;20238;-73
2023/10/15 10:46:21;;;;;;;2.53;0.73;;;12.60;99.90;;;;;;4882581;29;20207;-73
2023/10/15 10:49:03;;;;;;;5.93;1.03;;;12.80;99.90;;;;;;4882686;29;20217;-73
2023/10/15 10:51:33;;;;;;;2.90;0.77;;;12.90;99.90;;;;;;4882160;29;20299;-73
2023/10/15 10:54:28;;;;;;;3.47;1.07;;;12.90;99.90;;;;;;4890077;29;20226;-73
2023/10/15 10:57:00;;;;;;;1.43;0.60;;;12.90;99.90;;;;;;4894437;29;20207;-74
2023/10/15 10:59:28;;;;;;;2.93;0.60;;;13.10;99.90;;;;;;4898362;29;20266;-73
2023/10/15 11:01:58;;;;;;;1.70;0.60;;;13.10;99.90;;;;;;4897486;29;20302;-73
2023/10/15 11:04:26;;;;;;;1.33;0.67;;;13.10;99.90;;;;;;4890791;29;20227;-74
2023/10/15 11:06:53;;;;;;;1.67;0.77;;;13.20;99.90;;;;;;4896766;29;20635;-73
2023/10/15 11:09:22;;;;;;;2.03;0.90;;;13.30;99.90;;;;;;4895990;29;20681;-73
2023/10/15 11:11:51;;;;;;;1.23;0.60;;;13.40;99.90;;;;;;4882606;29;20619;-73
2023/10/15 11:14:22;;;;;;;5.20;0.80;;;13.40;99.90;;;;;;4896062;29;20229;-73
2023/10/15 11:16:50;;;;;;;1.30;0.50;;;13.40;99.90;;;;;;4893275;29;20210;-73
2023/10/15 11:19:19;;;;;;;2.07;0.50;;;13.70;99.90;;;;;;4893673;29;20210;-73
2023/10/15 11:21:48;;;;;;;2.23;0.70;;;14.00;99.90;;;;;;4893906;29;20245;-73
2023/10/15 11:24:16;;;;;;;2.23;0.50;;;14.20;99.90;;;;;;4888497;29;20234;-74
2023/10/15 11:26:44;;;;;;;6.27;0.90;;;14.40;99.90;;;;;;4901054;29;20238;-73
2023/10/15 11:29:12;;;;;;;1.90;0.60;;;14.40;99.90;;;;;;4901734;29;20207;-73
2023/10/15 11:31:42;;;;;;;4.20;0.80;;;14.40;99.90;;;;;;4899612;29;20234;-73
2023/10/15 11:34:11;;;;;;;2.17;0.70;;;14.10;99.90;;;;;;4893799;29;20298;-75
2023/10/15 11:36:43;;;;;;;1.57;0.70;;;13.80;99.90;;;;;;4900055;29;20277;-74
2023/10/15 11:39:18;;;;;;;3.27;0.70;;;13.70;99.90;;;;;;4909468;29;20206;-74
2023/10/15 11:41:49;;;;;;;2.10;0.40;;;13.40;99.90;;;;;;4916581;29;20308;-74
2023/10/15 11:44:16;;;;;;;4.43;1.03;;;13.10;99.90;;;;;;4920259;29;20282;-73
2023/10/15 11:46:43;;;;;;;1.53;0.30;;;13.10;99.90;;;;;;4919423;29;20224;-73
2023/10/15 11:49:10;;;;;;;4.30;0.80;;;12.90;99.90;;;;;;4911292;29;20221;-73
2023/10/15 11:51:39;;;;;;;2.17;0.47;;;12.70;99.90;;;;;;4885835;29;20242;-73
2023/10/15 11:54:09;;;;;;;2.07;0.30;;;12.60;99.90;;;;;;4890925;29;20301;-73
2023/10/15 11:56:39;;;;;;;0.23;0.20;;;12.30;99.90;;;;;;4899679;29;20252;-73
2023/10/15 11:59:05;;;;;;;1.60;0.33;;;12.10;99.90;;;;;;4899549;29;20238;-72
2023/10/15 12:01:35;;;;;;;0.97;0.37;;;12.00;99.90;;;;;;4899061;29;20215;-72
2023/10/15 12:04:02;;;;;;;1.20;0.30;;;12.00;99.90;;;;;;4899151;29;20226;-72
2023/10/15 12:06:29;;;;;;;1.43;0.30;;;12.10;99.90;;;;;;4898855;29;20234;-73
2023/10/15 12:08:58;;;;;;;0.60;0.30;;;12.00;99.90;;;;;;4899712;29;20217;-73
2023/10/15 12:11:27;;;;;;;3.40;0.73;;;12.20;99.90;;;;;;4899670;29;20705;-73
2023/10/15 12:13:54;;;;;;;0.90;0.30;;;12.30;99.90;;;;;;4894508;29;20270;-71
2023/10/15 12:16:21;;;;;;;2.53;0.50;;;12.40;99.90;;;;;;4900192;29;20259;-71
2023/10/15 12:18:47;;;;;;;0.93;0.20;;;12.50;99.90;;;;;;4894610;29;20313;-70
2023/10/15 12:21:16;;;;;;;0.43;0.20;;;12.60;99.90;;;;;;4918660;29;20237;-70
2023/10/15 12:23:44;;;;;;;1.00;0.30;;;12.50;99.90;;;;;;4888661;29;20706;-70
2023/10/15 12:26:11;;;;;;;2.27;0.30;;;12.50;99.90;;;;;;4881289;29;20688;-72
2023/10/15 12:28:44;;;;;;;1.07;0.33;;;12.50;99.90;;;;;;4897640;29;20221;-71
2023/10/15 12:31:13;;;;;;;4.63;0.60;;;12.50;99.90;;;;;;4904697;29;20241;-71
2023/10/15 12:33:40;;;;;;;1.67;0.30;;;12.60;99.90;;;;;;4888624;29;20239;-70
2023/10/15 12:36:11;;;;;;;2.33;0.43;;;12.60;99.90;;;;;;4882518;29;20269;-73
2023/10/15 12:38:39;;;;;;;1.63;0.40;;;12.70;99.90;;;;;;4885353;29;20219;-72
2023/10/15 12:41:06;;;;;;;2.53;0.43;;;12.90;99.90;;;;;;4879752;29;20211;-73
2023/10/15 12:43:33;;;;;;;1.67;0.60;;;12.80;99.90;;;;;;4881987;29;20263;-74
2023/10/15 12:46:01;;;;;;;2.20;0.40;;;12.80;99.90;;;;;;4880401;29;20271;-72
2023/10/15 12:48:29;;;;;;;1.97;0.43;;;12.90;99.90;;;;;;4879591;29;20218;-72
2023/10/15 12:50:56;;;;;;;2.63;0.73;;;12.90;99.90;;;;;;4879786;29;20255;-71
2023/10/15 12:53:24;;;;;;;2.13;0.30;;;13.00;99.90;;;;;;4881747;29;20262;-72
2023/10/15 12:55:51;;;;;;;2.97;0.30;;;13.10;99.90;;;;;;4879854;29;20207;-73
2023/10/15 12:58:18;;;;;;;1.10;0.40;;;13.10;99.90;;;;;;4879792;29;20604;-77
2023/10/15 13:00:48;;;;;;;0.77;0.20;;;13.10;99.90;;;;;;4879044;29;20634;-70
2023/10/15 13:03:17;;;;;;;1.00;0.37;;;13.20;99.90;;;;;;4882064;29;20215;-72
2023/10/15 13:05:44;;;;;;;1.43;0.30;;;13.30;99.90;;;;;;4880010;29;20219;-76
2023/10/15 13:08:11;;;;;;;1.13;0.30;;;13.30;99.90;;;;;;4885348;29;20262;-77
2023/10/15 13:10:38;;;;;;;2.37;0.30;;;13.30;99.90;;;;;;4895205;29;20270;-72
2023/10/15 13:13:06;;;;;;;1.67;0.30;;;13.30;99.90;;;;;;4894031;29;20294;-73
2023/10/15 13:15:33;;;;;;;0.73;0.37;;;13.10;99.90;;;;;;4881282;29;20211;-73
2023/10/15 13:18:00;;;;;;;1.03;0.30;;;13.00;99.90;;;;;;4881077;29;20207;-69
2023/10/15 13:20:28;;;;;;;2.27;0.33;;;13.00;99.90;;;;;;4880952;29;20214;-69
2023/10/15 13:22:56;;;;;;;1.60;0.30;;;13.00;99.90;;;;;;4883503;29;20238;-71
2023/10/15 13:25:23;;;;;;;1.10;0.40;;;13.10;99.90;;;;;;4882247;29;20231;-72
2023/10/15 13:27:50;;;;;;;1.33;0.40;;;13.10;99.90;;;;;;4883057;29;20286;-71
2023/10/15 13:30:17;;;;;;;1.90;0.30;;;13.30;99.90;;;;;;4879889;29;20215;-71
2023/10/15 13:32:46;;;;;;;0.90;0.20;;;13.50;99.90;;;;;;4884237;29;20239;-74
2023/10/15 13:35:13;;;;;;;4.23;0.40;;;13.60;99.90;;;;;;4879921;29;20274;-76
2023/10/15 13:37:42;;;;;;;2.93;0.77;;;13.70;99.90;;;;;;4889211;29;20261;-74
2023/10/15 13:40:11;;;;;;;1.37;0.40;;;13.80;99.90;;;;;;4895347;29;20293;-76
2023/10/15 13:42:38;;;;;;;0.93;0.33;;;13.70;99.90;;;;;;4899356;29;20210;-75
2023/10/15 13:45:05;;;;;;;1.17;0.50;;;13.60;99.90;;;;;;4897997;29;20318;-76
2023/10/15 13:47:35;;;;;;;1.80;0.43;;;13.60;99.90;;;;;;4897773;29;20249;-76
2023/10/15 13:50:06;;;;;;;1.27;0.80;;;13.70;99.90;;;;;;4885153;29;20211;-76
2023/10/15 13:52:34;;;;;;;1.77;0.60;;;13.60;99.90;;;;;;4878987;29;20231;-76
2023/10/15 13:55:04;;;;;;;2.47;0.80;;;13.70;99.90;;;;;;4893776;29;20277;-76
2023/10/15 13:57:31;;;;;;;7.47;0.73;;;13.60;99.90;;;;;;4899060;29;20251;-75
2023/10/15 13:59:58;;;;;;;2.90;0.57;;;13.70;99.90;;;;;;4879282;29;20272;-75
2023/10/15 14:02:25;;;;;;;0.50;0.30;;;13.70;99.90;;;;;;4879024;29;20204;-75
2023/10/15 14:04:53;;;;;;;0.40;0.30;;;13.20;99.90;;;;;;4878979;29;20259;-76
2023/10/15 14:07:20;;;;;;;0.70;0.30;;;12.90;99.90;;;;;;4889407;29;20269;-76
2023/10/15 14:09:47;;;;;;;0.23;0.20;;;12.30;99.90;;;;;;4879655;29;20211;-76
2023/10/15 14:12:15;;;;;;;0.97;0.30;;;11.80;99.90;;;;;;4881434;29;20804;-77
2023/10/15 14:14:43;;;;;;;0.80;0.30;;;11.10;99.90;;;;;;4883040;29;20657;-77
2023/10/15 14:17:09;;;;;;;0.20;0.10;;;10.70;99.90;;;;;;4893464;29;20210;-75
2023/10/15 14:19:38;;;;;;;1.17;0.30;;;10.40;99.90;;;;;;4882621;29;20218;-77
2023/10/15 14:22:05;;;;;;;0.50;0.30;;;10.10;99.90;;;;;;4882672;29;20218;-78
2023/10/15 14:24:33;;;;;;;0.50;0.27;;;9.80;99.90;;;;;;4882205;29;20223;-77
2023/10/15 14:27:00;;;;;;;1.17;0.20;;;9.70;99.90;;;;;;4892440;29;20220;-77
2023/10/15 14:29:28;;;;;;;1.90;0.30;;;9.80;99.90;;;;;;4901427;29;20258;-77
2023/10/15 14:31:55;;;;;;;0.30;0.20;;;10.00;99.90;;;;;;4911466;29;20320;-78
2023/10/15 14:34:22;;;;;;;0.60;0.23;;;10.20;99.90;;;;;;4892796;29;20314;-77
2023/10/15 14:36:49;;;;;;;1.07;0.17;;;10.30;99.90;;;;;;4900649;29;20218;-78
2023/10/15 14:39:22;;;;;;;2.53;0.90;;;10.50;99.90;;;;;;4901382;29;20305;-77
2023/10/15 14:41:49;;;;;;;2.43;1.13;;;10.60;99.90;;;;;;4901123;29;20210;-77
2023/10/15 14:44:16;;;;;;;3.03;1.20;;;10.80;99.90;;;;;;4901350;29;20268;-78
2023/10/15 14:46:44;;;;;;;1.53;0.40;;;10.80;99.90;;;;;;4901336;29;20293;-77
2023/10/15 14:49:11;;;;;;;0.50;0.30;;;11.00;99.90;;;;;;4901363;29;20345;-78
2023/10/15 14:51:38;;;;;;;2.30;0.33;;;11.00;99.90;;;;;;4900918;29;20318;-77
2023/10/15 14:54:06;;;;;;;1.67;0.33;;;11.10;99.90;;;;;;4900895;29;20234;-77
2023/10/15 14:56:33;;;;;;;2.23;1.00;;;11.20;99.90;;;;;;4901082;29;20210;-77
2023/10/15 14:59:00;;;;;;;1.47;0.40;;;11.30;99.90;;;;;;4901145;29;20214;-78
2023/10/15 15:01:27;;;;;;;1.50;0.60;;;11.20;99.90;;;;;;4901230;29;20206;-77
2023/10/15 15:03:56;;;;;;;1.13;0.60;;;11.20;99.90;;;;;;4900604;29;20265;-78
2023/10/15 15:06:23;;;;;;;3.33;0.53;;;11.20;99.90;;;;;;4900924;29;20241;-77
2023/10/15 15:08:50;;;;;;;0.50;0.30;;;11.00;99.90;;;;;;4900600;29;20289;-77
2023/10/15 15:11:17;;;;;;;0.37;0.30;;;10.90;99.90;;;;;;4900300;29;20400;-77
2023/10/15 15:13:44;;;;;;;2.47;0.40;;;10.90;99.90;;;;;;4900614;29;20705;-77
2023/10/15 15:16:11;;;;;;;2.03;0.33;;;11.00;99.90;;;;;;4900609;29;20297;-77
2023/10/15 15:18:37;;;;;;;0.83;0.30;;;11.00;99.90;;;;;;4900569;29;20245;-78
2023/10/15 15:21:06;;;;;;;1.97;0.50;;;11.10;99.90;;;;;;4900782;29;20257;-78
2023/10/15 15:23:33;;;;;;;0.77;0.40;;;11.10;99.90;;;;;;4899601;29;20230;-76
2023/10/15 15:26:02;;;;;;;0.77;0.40;;;11.00;99.90;;;;;;4900605;29;20642;-76
2023/10/15 15:28:29;;;;;;;0.83;0.60;;;11.20;99.90;;;;;;4900837;29;20218;-77
2023/10/15 15:30:56;;;;;;;2.03;0.40;;;11.40;99.90;;;;;;4900167;29;20250;-77
2023/10/15 15:33:24;;;;;;;0.50;0.50;;;11.40;99.90;;;;;;4900753;29;20262;-76
2023/10/15 15:35:52;;;;;;;1.37;0.40;;;11.40;99.90;;;;;;4900135;29;20674;-77
2023/10/15 15:38:21;;;;;;;1.37;0.50;;;11.40;99.90;;;;;;4900003;29;20309;-77
2023/10/15 15:40:52;;;;;;;3.10;0.47;;;11.40;99.90;;;;;;4900284;29;20329;-77
2023/10/15 15:43:20;;;;;;;1.20;0.40;;;11.40;99.90;;;;;;4900174;29;20574;-74
2023/10/15 15:45:47;;;;;;;2.53;0.73;;;11.40;99.90;;;;;;4900158;29;20206;-75
2023/10/15 15:48:14;;;;;;;1.47;0.40;;;11.40;99.90;;;;;;4899843;29;20569;-76
2023/10/15 15:50:41;;;;;;;1.40;0.33;;;11.30;99.90;;;;;;4899991;29;20214;-73
2023/10/15 15:53:08;;;;;;;1.37;0.50;;;11.20;99.90;;;;;;4899679;29;20332;-78
2023/10/15 15:55:37;;;;;;;2.03;0.60;;;11.10;99.90;;;;;;4899934;29;20640;-77
2023/10/15 15:58:04;;;;;;;1.90;0.50;;;11.20;99.90;;;;;;4899857;29;20249;-77
2023/10/15 16:00:32;;;;;;;3.50;0.80;;;11.10;99.90;;;;;;4899552;29;20214;-77
2023/10/15 16:03:00;;;;;;;3.73;0.63;;;11.00;99.90;;;;;;4899777;29;20301;-76
2023/10/15 16:05:27;;;;;;;8.30;3.53;;;11.00;99.90;;;;;;4899837;29;20604;-77
2023/10/15 16:07:58;;;;;;;4.33;0.80;;;10.90;99.90;;;;;;4899809;29;20685;-78
2023/10/15 16:10:25;;;;;;;1.63;0.87;;;10.90;99.90;;;;;;4899638;29;20258;-77
2023/10/15 16:12:53;;;;;;;1.60;1.00;;;10.90;99.90;;;;;;4899521;29;20234;-77
2023/10/15 16:15:21;;;;;;;2.07;0.80;;;10.90;99.90;;;;;;4899129;29;20230;-76
2023/10/15 16:17:49;;;;;;;1.60;0.57;;;10.80;99.90;;;;;;4899384;29;20242;-78
2023/10/15 16:20:17;;;;;;;0.90;0.50;;;10.80;99.90;;;;;;4899381;29;20236;-77
2023/10/15 16:22:45;;;;;;;1.37;0.57;;;10.80;99.90;;;;;;4899242;29;20217;-77
2023/10/15 16:25:12;;;;;;;1.60;0.70;;;10.80;99.90;;;;;;4899441;29;20238;-77
2023/10/15 16:27:39;;;;;;;2.67;0.77;;;10.80;99.90;;;;;;4899101;29;20270;-77
2023/10/15 16:30:10;;;;;;;0.90;0.50;;;10.80;99.90;;;;;;4899015;29;20658;-77
2023/10/15 16:32:38;;;;;;;1.50;0.70;;;10.70;99.90;;;;;;4898890;29;20237;-77
2023/10/15 16:35:05;;;;;;;2.73;0.90;;;10.70;99.90;;;;;;4898478;29;20237;-77
2023/10/15 16:37:33;;;;;;;2.27;1.00;;;10.70;99.90;;;;;;4898948;29;20222;-77
2023/10/15 16:40:00;;;;;;;3.60;1.20;;;10.60;99.90;;;;;;4899195;29;20210;-76
2023/10/15 16:42:27;;;;;;;3.33;1.00;;;10.70;99.90;;;;;;4899088;29;20301;-77
2023/10/15 16:44:54;;;;;;;3.20;1.07;;;10.70;99.90;;;;;;4899247;29;20317;-77
2023/10/15 16:47:22;;;;;;;3.20;1.20;;;10.80;99.90;;;;;;4898792;29;20577;-77
2023/10/15 16:49:49;;;;;;;2.27;1.00;;;10.80;99.90;;;;;;4898480;29;20304;-77
2023/10/15 16:52:16;;;;;;;3.33;1.23;;;10.90;99.90;;;;;;4898614;29;20333;-77
2023/10/15 16:54:43;;;;;;;4.27;1.47;;;10.90;99.90;;;;;;4898963;29;20234;-76
2023/10/15 16:57:10;;;;;;;1.33;1.10;;;10.80;99.90;;;;;;4898817;29;20242;-76
2023/10/15 16:59:37;;;;;;;2.77;1.20;;;10.70;99.90;;;;;;4898310;29;20246;-77
2023/10/15 17:02:04;;;;;;;3.77;1.77;;;10.80;99.90;;;;;;4898616;29;20681;-77
2023/10/15 17:04:32;;;;;;;4.20;1.80;;;10.70;99.90;;;;;;4898414;29;20273;-77
2023/10/15 17:06:59;;;;;;;3.27;1.40;;;10.80;99.90;;;;;;4898473;29;20395;-77
2023/10/15 17:09:26;;;;;;;5.37;2.07;;;10.80;99.90;;;;;;4898368;29;20305;-76
2023/10/15 17:11:53;;;;;;;6.03;2.10;;;10.70;99.90;;;;;;4898567;29;20236;-77
2023/10/15 17:14:20;;;;;;;5.57;1.97;;;10.60;99.90;;;;;;4898551;29;20776;-76
2023/10/15 17:16:47;;;;;;;4.87;2.10;;;10.60;99.90;;;;;;4898307;29;20246;-77
2023/10/15 17:19:14;;;;;;;4.90;2.47;;;10.60;99.90;;;;;;4898044;29;20210;-76
2023/10/15 17:21:43;;;;;;;7.07;3.40;;;10.40;99.90;;;;;;4898179;29;20607;-77
2023/10/15 17:24:10;;;;;;;5.93;2.70;;;10.40;99.90;;;;;;4898140;29;20240;-77
2023/10/15 17:26:37;;;;;;;5.87;2.73;;;10.40;99.90;;;;;;4898460;29;20249;-77
2023/10/15 17:29:05;;;;;;;5.30;2.70;;;10.30;99.90;;;;;;4898192;29;20561;-77
2023/10/15 17:31:32;;;;;;;4.70;2.70;;;10.20;99.90;;;;;;4898110;29;20218;-77
2023/10/15 17:34:01;;;;;;;6.83;2.60;;;10.10;99.90;;;;;;4898062;29;20321;-77
2023/10/15 17:36:28;;;;;;;8.03;3.73;;;10.20;99.90;;;;;;4898494;29;20214;-77
2023/10/15 17:38:58;;;;;;;6.10;3.33;;;10.20;99.90;;;;;;4898040;29;20212;-77
2023/10/15 17:41:25;;;;;;;6.17;3.00;;;10.10;99.90;;;;;;4897836;29;20301;-77
2023/10/15 17:43:52;;;;;;;5.20;2.93;;;10.00;99.90;;;;;;4897641;29;20325;-77
2023/10/15 17:46:19;;;;;;;6.53;3.10;;;9.90;99.90;;;;;;4897286;29;20242;-76
2023/10/15 17:48:46;;;;;;;5.93;3.33;;;9.80;99.90;;;;;;4898366;29;20732;-77
2023/10/15 17:51:14;;;;;;;9.73;3.47;;;9.70;99.90;;;;;;4898258;29;20238;-77
2023/10/15 17:53:41;;;;;;;4.53;2.40;;;9.60;99.90;;;;;;4897490;29;20290;-77
2023/10/15 17:56:10;;;;;;;7.53;2.93;;;9.60;99.90;;;;;;4897899;29;20238;-77
2023/10/15 17:58:37;;;;;;;6.30;3.10;;;9.60;99.90;;;;;;4897547;29;20221;-76
2023/10/15 18:01:05;;;;;;;9.40;3.73;;;9.60;99.90;;;;;;4897738;29;20215;-76
2023/10/15 18:03:33;;;;;;;5.83;3.00;;;9.60;99.90;;;;;;4898180;29;20321;-76
2023/10/15 18:06:03;;;;;;;4.57;2.60;;;9.70;99.90;;;;;;4897797;29;20677;-76
2023/10/15 18:08:30;;;;;;;6.33;2.83;;;9.70;99.90;;;;;;4897672;29;20270;-76
2023/10/15 18:10:56;;;;;;;6.23;2.60;;;9.70;99.90;;;;;;4897695;29;20306;-75
2023/10/15 18:13:26;;;;;;;5.67;2.70;;;9.60;99.90;;;;;;4897449;29;20329;-76
2023/10/15 18:15:54;;;;;;;6.20;2.60;;;9.40;99.90;;;;;;4897884;29;20222;-77
2023/10/15 18:18:21;;;;;;;4.13;2.87;;;9.30;99.90;;;;;;4898152;29;20220;-76
2023/10/15 18:20:47;;;;;;;4.87;2.83;;;9.20;99.90;;;;;;4897885;29;20245;-76
2023/10/15 18:23:15;;;;;;;4.07;2.37;;;9.20;99.90;;;;;;4897471;29;20299;-76
2023/10/15 18:25:42;;;;;;;4.37;2.63;;;9.30;99.90;;;;;;4897374;29;20214;-76
2023/10/15 18:28:09;;;;;;;5.27;2.60;;;9.30;99.90;;;;;;4897489;29;20276;-75
2023/10/15 18:30:38;;;;;;;6.00;2.63;;;9.20;99.90;;;;;;4897832;29;20210;-74
2023/10/15 18:33:05;;;;;;;4.70;2.30;;;9.20;99.90;;;;;;4897620;29;20238;-76
2023/10/15 18:35:33;;;;;;;4.53;2.53;;;9.20;99.90;;;;;;4897310;29;20665;-73
2023/10/15 18:37:59;;;;;;;6.40;3.10;;;9.20;99.90;;;;;;4897297;29;20218;-72
2023/10/15 18:40:26;;;;;;;11.47;4.23;;;9.30;99.90;;;;;;4897326;29;20293;-73
2023/10/15 18:42:53;;;;;;;6.40;3.40;;;9.40;99.90;;;;;;4897534;29;20269;-74
2023/10/15 18:45:20;;;;;;;6.03;2.50;;;9.50;99.90;;;;;;4897460;29;20647;-74
2023/10/15 18:47:49;;;;;;;6.87;3.00;;;9.60;99.90;;;;;;4897390;29;20249;-73
2023/10/15 18:50:16;;;;;;;7.67;3.17;;;9.60;99.90;;;;;;4897559;29;20214;-74
2023/10/15 18:52:43;;;;;;;8.13;3.80;;;9.50;99.90;;;;;;4896865;29;20732;-76
2023/10/15 18:55:12;;;;;;;8.63;3.40;;;9.50;99.90;;;;;;4896599;29;20281;-73
2023/10/15 18:57:39;;;;;;;8.80;3.47;;;9.60;99.90;;;;;;4898779;29;20210;-75
2023/10/15 19:00:07;;;;;;;5.07;2.73;;;9.50;99.90;;;;;;4900752;29;20238;-74
2023/10/15 19:02:34;;;;;;;5.67;2.77;;;9.40;99.90;;;;;;4900354;29;20210;-72
2023/10/15 19:05:03;;;;;;;4.67;2.90;;;9.20;99.90;;;;;;4900275;29;20231;-73
2023/10/15 19:07:30;;;;;;;7.80;3.27;;;9.30;99.90;;;;;;4900472;29;20234;-74
2023/10/15 19:09:57;;;;;;;3.70;2.20;;;9.30;99.90;;;;;;4901092;29;20249;-72
2023/10/15 19:12:25;;;;;;;5.00;2.30;;;9.30;99.90;;;;;;4900669;29;20246;-73
2023/10/15 19:14:52;;;;;;;6.33;3.20;;;9.30;99.90;;;;;;4901148;29;20589;-74
2023/10/15 19:17:19;;;;;;;7.43;2.77;;;9.40;99.90;;;;;;4900571;29;20246;-75
2023/10/15 19:19:47;;;;;;;7.57;3.00;;;9.40;99.90;;;;;;4900309;29;20217;-76
2023/10/15 19:22:15;;;;;;;6.97;3.03;;;9.50;99.90;;;;;;4900482;29;20214;-76
2023/10/15 19:24:42;;;;;;;8.00;4.47;;;9.40;99.90;;;;;;4900120;29;20262;-76
2023/10/15 19:27:11;;;;;;;8.67;3.80;;;9.40;99.90;;;;;;4900509;29;20241;-75
2023/10/15 19:29:40;;;;;;;4.93;2.33;;;9.20;99.90;;;;;;4900010;29;20210;-76
2023/10/15 19:32:07;;;;;;;4.67;2.30;;;9.20;99.90;;;;;;4899938;29;20214;-76
2023/10/15 19:34:34;;;;;;;8.27;2.57;;;8.90;99.90;;;;;;4900094;29;20619;-76
2023/10/15 19:37:00;;;;;;;3.27;2.30;;;8.80;99.90;;;;;;4899781;29;20258;-76
2023/10/15 19:39:29;;;;;;;7.23;3.23;;;8.80;99.90;;;;;;4900251;29;20210;-76
2023/10/15 19:41:56;;;;;;;7.23;3.10;;;8.70;99.90;;;;;;4900126;29;20721;-77
2023/10/15 19:44:23;;;;;;;4.93;2.50;;;8.70;99.90;;;;;;4899967;29;20302;-77
2023/10/15 19:46:50;;;;;;;8.47;3.73;;;8.80;99.90;;;;;;4900026;29;20721;-76
2023/10/15 19:49:17;;;;;;;6.60;2.87;;;8.80;99.90;;;;;;4900224;29;20688;-76
2023/10/15 19:51:44;;;;;;;6.00;2.83;;;8.70;99.90;;;;;;4899888;29;20270;-76
2023/10/15 19:54:11;;;;;;;5.63;2.87;;;8.80;99.90;;;;;;4899215;29;20288;-76
2023/10/15 19:56:41;;;;;;;6.47;2.57;;;8.80;99.90;;;;;;4899791;29;20215;-76
2023/10/15 19:59:08;;;;;;;7.17;2.40;;;8.80;99.90;;;;;;4899605;29;20217;-76
2023/10/15 20:01:42;;;;;;;4.13;2.07;;;8.70;99.90;;;;;;4900081;29;20242;-75
2023/10/15 20:04:09;;;;;;;7.27;2.80;;;8.60;99.90;;;;;;4899795;29;20265;-76
2023/10/15 20:06:36;;;;;;;9.67;2.87;;;8.40;99.90;;;;;;4899730;29;20214;-76
2023/10/15 20:09:09;;;;;;;6.30;2.67;;;8.30;99.90;;;;;;4899025;29;20581;-77
2023/10/15 20:11:36;;;;;;;5.20;2.63;;;8.20;99.90;;;;;;4899540;29;20293;-76
2023/10/15 20:14:09;;;;;;;5.77;2.37;;;8.10;99.90;;;;;;4899860;29;20274;-77
2023/10/15 20:16:36;;;;;;;5.43;2.30;;;8.10;99.90;;;;;;4899157;29;20611;-73
2023/10/15 20:19:05;;;;;;;4.90;2.20;;;8.00;99.90;;;;;;4899462;29;20210;-76
2023/10/15 20:21:33;;;;;;;3.97;1.80;;;8.10;99.90;;;;;;4899597;29;20238;-76
2023/10/15 20:23:59;;;;;;;4.73;2.50;;;8.10;99.90;;;;;;4899271;29;20595;-76
2023/10/15 20:26:28;;;;;;;6.03;2.50;;;8.10;99.90;;;;;;4899523;29;20261;-76
2023/10/15 20:28:55;;;;;;;3.13;2.10;;;8.10;99.90;;;;;;4899759;29;20238;-75
2023/10/15 20:31:24;;;;;;;5.33;2.60;;;8.00;99.90;;;;;;4900051;29;20223;-77
2023/10/15 20:33:51;;;;;;;4.17;2.40;;;8.00;99.90;;;;;;4899129;29;20587;-74
2023/10/15 20:38:52;;;;;;;5.37;2.37;;;8.00;99.90;;;;;;4898302;29;20233;-77
2023/10/15 20:41:19;;;;;;;6.03;2.80;;;8.20;99.90;;;;;;4899295;29;20634;-75
2023/10/15 20:43:46;;;;;;;8.73;3.43;;;8.00;99.90;;;;;;4899295;29;20238;-75
2023/10/15 20:46:13;;;;;;;7.73;2.80;;;7.90;99.90;;;;;;4891701;29;20234;-75
2023/10/15 20:48:41;;;;;;;4.50;2.87;;;7.80;99.90;;;;;;4885098;29;20689;-75
2023/10/15 20:51:08;;;;;;;6.57;4.07;;;7.80;99.90;;;;;;4895092;29;20253;-75
2023/10/15 20:53:35;;;;;;;8.27;3.10;;;7.90;99.90;;;;;;4898609;29;20269;-75
2023/10/15 20:56:02;;;;;;;8.67;3.73;;;7.80;99.90;;;;;;4887563;29;20242;-75
2023/10/15 20:58:29;;;;;;;9.70;3.23;;;7.90;99.90;;;;;;4888206;29;20253;-75
2023/10/15 21:00:56;;;;;;;5.50;3.30;;;7.90;99.90;;;;;;4894665;29;20682;-76
2023/10/15 21:03:25;;;;;;;6.07;2.73;;;7.80;99.90;;;;;;4891230;29;20235;-76
2023/10/15 21:05:54;;;;;;;8.80;2.97;;;7.80;99.90;;;;;;4892282;29;20673;-76
2023/10/15 21:08:21;;;;;;;5.30;2.57;;;7.90;99.90;;;;;;4897434;29;20275;-76
2023/10/15 21:10:48;;;;;;;5.23;2.73;;;7.90;99.90;;;;;;4897727;29;20282;-76
2023/10/15 21:13:15;;;;;;;5.90;2.73;;;7.90;99.90;;;;;;4897780;29;20606;-76
2023/10/15 21:15:41;;;;;;;5.07;3.10;;;7.70;99.90;;;;;;4897661;29;20261;-77
2023/10/15 21:18:08;;;;;;;5.90;2.77;;;7.60;99.90;;;;;;4897681;29;20292;-75
2023/10/15 21:20:36;;;;;;;4.50;2.77;;;7.60;99.90;;;;;;4889101;29;20246;-76
2023/10/15 21:23:05;;;;;;;7.03;2.83;;;7.50;99.90;;;;;;4892320;29;20305;-76
2023/10/15 21:25:32;;;;;;;5.33;2.70;;;7.40;99.90;;;;;;4889764;29;20622;-76
2023/10/15 21:27:58;;;;;;;5.57;2.63;;;7.30;99.90;;;;;;4885593;29;20313;-76
2023/10/15 21:30:26;;;;;;;6.90;3.27;;;7.40;99.90;;;;;;4892935;29;20210;-76
2023/10/15 21:32:53;;;;;;;5.43;2.40;;;7.40;99.90;;;;;;4897328;29;20206;-75
2023/10/15 21:35:20;;;;;;;6.03;2.17;;;7.40;99.90;;;;;;4897335;29;20321;-76